MXY1014 KPVD-KCHS
Flight info
| Callsign | MXY1014 |
|---|---|
| Flight time | 2h 1m |
| Altitude | 38000 |
| Route | JUMPR RIFLE HEADI Q97 SAWED DFENC Q109 JOHAR AMYLU AMYLU3 |
| Aircraft | E190/M-SDE3GILORVW/S |
Departure
| Time | 2026-05-09 12:19 |
|---|---|
| Airport | Rhode Island T. F. Green International Airport (KPVD) |
Arrival
| Time | 2026-05-09 14:21 |
|---|---|
| Airport | Charleston International Airport (KCHS) |
| Time | Latitude | Longitude | Altitude | Speed | Heading |
|---|---|---|---|---|---|
| 2026-05-09 12:00 | 41.72632 | -71.43400 | 68 ft | 0 kts | 323° |
| 2026-05-09 12:11 | 41.72629 | -71.43396 | 69 ft | 2 kts | 323° |
| 2026-05-09 12:12 | 41.72617 | -71.43384 | 69 ft | 2 kts | 323° |
| 2026-05-09 12:12 | 41.72605 | -71.43372 | 68 ft | 2 kts | 323° |
| 2026-05-09 12:12 | 41.72592 | -71.43361 | 68 ft | 2 kts | 337° |
| 2026-05-09 12:12 | 41.72578 | -71.43356 | 68 ft | 2 kts | 357° |
| 2026-05-09 12:13 | 41.72564 | -71.43358 | 68 ft | 2 kts | 16° |
| 2026-05-09 12:13 | 41.72551 | -71.43365 | 68 ft | 1 kts | 33° |
| 2026-05-09 12:13 | 41.72550 | -71.43366 | 68 ft | 0 kts | 33° |
| 2026-05-09 12:14 | 41.72558 | -71.43359 | 68 ft | 4 kts | 33° |
| 2026-05-09 12:15 | 41.72609 | -71.43316 | 68 ft | 12 kts | 33° |
| 2026-05-09 12:15 | 41.72707 | -71.43232 | 68 ft | 20 kts | 33° |
| 2026-05-09 12:15 | 41.72852 | -71.43109 | 67 ft | 28 kts | 30° |
| 2026-05-09 12:15 | 41.72920 | -71.42899 | 66 ft | 26 kts | 79° |
| 2026-05-09 12:16 | 41.72937 | -71.42651 | 64 ft | 27 kts | 88° |
| 2026-05-09 12:16 | 41.72947 | -71.42400 | 62 ft | 25 kts | 86° |
| 2026-05-09 12:16 | 41.73044 | -71.42275 | 61 ft | 17 kts | 31° |
| 2026-05-09 12:16 | 41.73076 | -71.42210 | 60 ft | 0 kts | 102° |
| 2026-05-09 12:17 | 41.73076 | -71.42205 | 60 ft | 1 kts | 103° |
| 2026-05-09 12:17 | 41.73072 | -71.42193 | 60 ft | 1 kts | 112° |
| 2026-05-09 12:17 | 41.73066 | -71.42172 | 60 ft | 3 kts | 116° |
| 2026-05-09 12:18 | 41.73050 | -71.42138 | 60 ft | 6 kts | 133° |
| 2026-05-09 12:18 | 41.72962 | -71.42173 | 60 ft | 35 kts | 211° |
| 2026-05-09 12:18 | 41.72522 | -71.42539 | 63 ft | 109 kts | 212° |
| 2026-05-09 12:18 | 41.71716 | -71.43215 | 71 ft | 164 kts | 212° |
| 2026-05-09 12:19 | 41.70675 | -71.44088 | 440 ft | 183 kts | 212° |
| 2026-05-09 12:19 | 41.69670 | -71.45074 | 1350 ft | 178 kts | 215° |
| 2026-05-09 12:19 | 41.68670 | -71.45973 | 2209 ft | 182 kts | 210° |
| 2026-05-09 12:19 | 41.67532 | -71.46815 | 3002 ft | 193 kts | 208° |
| 2026-05-09 12:20 | 41.66263 | -71.47530 | 3643 ft | 215 kts | 192° |
| 2026-05-09 12:20 | 41.64682 | -71.47259 | 4123 ft | 250 kts | 167° |
| 2026-05-09 12:20 | 41.62980 | -71.46513 | 5010 ft | 262 kts | 167° |
| 2026-05-09 12:20 | 41.61278 | -71.45727 | 6114 ft | 263 kts | 167° |
| 2026-05-09 12:21 | 41.59584 | -71.44932 | 7208 ft | 263 kts | 168° |
| 2026-05-09 12:21 | 41.57860 | -71.44115 | 8136 ft | 268 kts | 168° |
| 2026-05-09 12:21 | 41.56097 | -71.43276 | 9001 ft | 274 kts | 168° |
| 2026-05-09 12:21 | 41.54282 | -71.42409 | 9833 ft | 281 kts | 168° |
| 2026-05-09 12:22 | 41.52436 | -71.41527 | 10630 ft | 287 kts | 168° |
| 2026-05-09 12:22 | 41.50530 | -71.40617 | 11339 ft | 297 kts | 168° |
| 2026-05-09 12:22 | 41.48564 | -71.39679 | 11950 ft | 309 kts | 167° |
| 2026-05-09 12:22 | 41.46497 | -71.38691 | 12548 ft | 322 kts | 167° |
| 2026-05-09 12:23 | 41.44368 | -71.37674 | 13222 ft | 331 kts | 167° |
| 2026-05-09 12:23 | 41.42205 | -71.36641 | 13957 ft | 337 kts | 167° |
| 2026-05-09 12:23 | 41.39982 | -71.35580 | 14741 ft | 341 kts | 167° |
| 2026-05-09 12:23 | 41.37727 | -71.34506 | 15526 ft | 345 kts | 167° |
| 2026-05-09 12:24 | 41.35494 | -71.33443 | 16267 ft | 349 kts | 168° |
| 2026-05-09 12:24 | 41.33187 | -71.32345 | 16982 ft | 353 kts | 168° |
| 2026-05-09 12:24 | 41.30862 | -71.31240 | 17696 ft | 357 kts | 168° |
| 2026-05-09 12:24 | 41.28543 | -71.30139 | 18386 ft | 361 kts | 168° |
| 2026-05-09 12:25 | 41.26173 | -71.29015 | 19070 ft | 365 kts | 169° |
| 2026-05-09 12:25 | 41.23744 | -71.27864 | 19717 ft | 370 kts | 168° |
| 2026-05-09 12:25 | 41.21297 | -71.26824 | 20318 ft | 366 kts | 180° |
| 2026-05-09 12:25 | 41.18875 | -71.26975 | 20922 ft | 344 kts | 206° |
| 2026-05-09 12:26 | 41.16854 | -71.28439 | 21543 ft | 328 kts | 228° |
| 2026-05-09 12:26 | 41.15416 | -71.30688 | 22239 ft | 319 kts | 242° |
| 2026-05-09 12:26 | 41.14285 | -71.33188 | 22946 ft | 318 kts | 246° |
| 2026-05-09 12:26 | 41.13264 | -71.35774 | 23588 ft | 319 kts | 248° |
| 2026-05-09 12:27 | 41.12278 | -71.38437 | 24237 ft | 321 kts | 249° |
| 2026-05-09 12:27 | 41.11327 | -71.41074 | 24796 ft | 324 kts | 249° |
| 2026-05-09 12:27 | 41.10356 | -71.43793 | 25424 ft | 326 kts | 249° |
| 2026-05-09 12:27 | 41.09396 | -71.46492 | 25988 ft | 329 kts | 250° |
| 2026-05-09 12:28 | 41.08415 | -71.49255 | 26531 ft | 333 kts | 249° |
| 2026-05-09 12:28 | 41.07428 | -71.52032 | 27074 ft | 336 kts | 250° |
| 2026-05-09 12:28 | 41.06430 | -71.54841 | 27633 ft | 338 kts | 249° |
| 2026-05-09 12:28 | 41.05427 | -71.57659 | 28171 ft | 341 kts | 249° |
| 2026-05-09 12:29 | 41.04421 | -71.60482 | 28694 ft | 343 kts | 249° |
| 2026-05-09 12:29 | 41.03392 | -71.63367 | 29168 ft | 347 kts | 249° |
| 2026-05-09 12:29 | 41.02365 | -71.66246 | 29675 ft | 350 kts | 249° |
| 2026-05-09 12:29 | 41.01319 | -71.69173 | 30199 ft | 352 kts | 249° |
| 2026-05-09 12:30 | 41.00275 | -71.72093 | 30667 ft | 356 kts | 248° |
| 2026-05-09 12:30 | 40.99217 | -71.75048 | 31145 ft | 358 kts | 249° |
| 2026-05-09 12:30 | 40.97073 | -71.81027 | 32010 ft | 365 kts | 248° |
| 2026-05-09 12:31 | 40.95979 | -71.84073 | 32499 ft | 367 kts | 248° |
| 2026-05-09 12:31 | 40.93806 | -71.90112 | 33653 ft | 364 kts | 248° |
| 2026-05-09 12:31 | 40.92727 | -71.93107 | 34270 ft | 361 kts | 249° |
| 2026-05-09 12:32 | 40.91651 | -71.96091 | 34773 ft | 360 kts | 248° |
| 2026-05-09 12:32 | 40.90570 | -71.99086 | 35157 ft | 359 kts | 249° |
| 2026-05-09 12:32 | 40.89500 | -72.02046 | 35523 ft | 357 kts | 248° |
| 2026-05-09 12:32 | 40.88448 | -72.04954 | 35870 ft | 353 kts | 249° |
| 2026-05-09 12:33 | 40.87400 | -72.07851 | 36222 ft | 350 kts | 248° |
| 2026-05-09 12:33 | 40.86351 | -72.10742 | 36616 ft | 348 kts | 248° |
| 2026-05-09 12:33 | 40.85310 | -72.13612 | 36987 ft | 347 kts | 248° |
| 2026-05-09 12:33 | 40.84271 | -72.16471 | 37344 ft | 346 kts | 249° |
| 2026-05-09 12:34 | 40.83234 | -72.19325 | 37642 ft | 347 kts | 248° |
| 2026-05-09 12:34 | 40.82194 | -72.22182 | 37935 ft | 345 kts | 248° |
| 2026-05-09 12:34 | 40.81171 | -72.24990 | 37976 ft | 342 kts | 248° |
| 2026-05-09 12:35 | 40.79076 | -72.30737 | 38019 ft | 355 kts | 248° |
| 2026-05-09 12:35 | 40.76898 | -72.36694 | 38009 ft | 369 kts | 248° |
| 2026-05-09 12:36 | 40.74645 | -72.42843 | 38006 ft | 375 kts | 248° |
| 2026-05-09 12:36 | 40.72400 | -72.48957 | 38003 ft | 371 kts | 248° |
| 2026-05-09 12:37 | 40.70160 | -72.55045 | 37991 ft | 371 kts | 248° |
| 2026-05-09 12:37 | 40.67363 | -72.60805 | 38003 ft | 377 kts | 236° |
| 2026-05-09 12:38 | 40.64060 | -72.66097 | 38007 ft | 376 kts | 236° |
| 2026-05-09 12:38 | 40.60719 | -72.71435 | 38005 ft | 377 kts | 236° |
| 2026-05-09 12:39 | 40.57399 | -72.76730 | 38010 ft | 377 kts | 236° |
| 2026-05-09 12:39 | 40.54063 | -72.82039 | 38000 ft | 376 kts | 236° |
| 2026-05-09 12:40 | 40.50767 | -72.87274 | 37991 ft | 357 kts | 236° |
| 2026-05-09 12:40 | 40.49260 | -72.89658 | 37952 ft | 323 kts | 237° |
| 2026-05-09 12:40 | 40.47834 | -72.91929 | 37995 ft | 329 kts | 237° |
| 2026-05-09 12:41 | 40.44834 | -72.96687 | 38001 ft | 345 kts | 236° |
| 2026-05-09 12:41 | 40.41711 | -73.01628 | 38004 ft | 361 kts | 236° |
| 2026-05-09 12:42 | 40.38445 | -73.06785 | 37987 ft | 375 kts | 236° |
| 2026-05-09 12:42 | 40.35101 | -73.12054 | 37986 ft | 377 kts | 236° |
| 2026-05-09 12:43 | 40.31762 | -73.17309 | 37984 ft | 378 kts | 236° |
| 2026-05-09 12:43 | 40.28402 | -73.22588 | 37987 ft | 376 kts | 236° |
| 2026-05-09 12:44 | 40.25059 | -73.27833 | 37982 ft | 375 kts | 236° |
| 2026-05-09 12:44 | 40.21742 | -73.33026 | 37978 ft | 377 kts | 235° |
| 2026-05-09 12:45 | 40.18398 | -73.38252 | 37973 ft | 376 kts | 236° |
| 2026-05-09 12:45 | 40.15042 | -73.43490 | 37975 ft | 376 kts | 236° |
| 2026-05-09 12:46 | 40.11698 | -73.48699 | 37975 ft | 376 kts | 236° |
| 2026-05-09 12:46 | 40.08331 | -73.53936 | 37971 ft | 376 kts | 236° |
| 2026-05-09 12:47 | 40.04986 | -73.59131 | 37965 ft | 376 kts | 236° |
| 2026-05-09 12:47 | 40.01623 | -73.64343 | 37960 ft | 376 kts | 236° |
| 2026-05-09 12:48 | 39.98232 | -73.69579 | 37981 ft | 377 kts | 233° |
| 2026-05-09 12:48 | 39.93986 | -73.73779 | 37995 ft | 396 kts | 214° |
| 2026-05-09 12:49 | 39.88837 | -73.76509 | 37995 ft | 401 kts | 211° |
| 2026-05-09 12:49 | 39.83707 | -73.79229 | 37989 ft | 398 kts | 212° |
| 2026-05-09 12:50 | 39.78563 | -73.81966 | 37985 ft | 399 kts | 211° |
| 2026-05-09 12:50 | 39.73364 | -73.84568 | 37998 ft | 405 kts | 208° |
| 2026-05-09 12:51 | 39.68012 | -73.86763 | 37986 ft | 398 kts | 213° |
| 2026-05-09 12:51 | 39.65638 | -73.88475 | 37997 ft | 386 kts | 223° |
| 2026-05-09 12:51 | 39.63614 | -73.90697 | 38004 ft | 377 kts | 232° |
| 2026-05-09 12:52 | 39.60572 | -73.96063 | 37991 ft | 374 kts | 235° |
| 2026-05-09 12:52 | 39.56571 | -74.00552 | 37998 ft | 385 kts | 224° |
| 2026-05-09 12:53 | 39.52288 | -74.04664 | 37980 ft | 384 kts | 224° |
| 2026-05-09 12:53 | 39.47979 | -74.08778 | 37992 ft | 383 kts | 224° |
| 2026-05-09 12:54 | 39.43700 | -74.12854 | 37989 ft | 383 kts | 224° |
| 2026-05-09 12:54 | 39.39402 | -74.16942 | 37979 ft | 383 kts | 224° |
| 2026-05-09 12:55 | 39.35121 | -74.21006 | 37978 ft | 383 kts | 224° |
| 2026-05-09 12:55 | 39.30827 | -74.25077 | 37983 ft | 383 kts | 224° |
| 2026-05-09 12:56 | 39.26546 | -74.29130 | 37988 ft | 381 kts | 224° |
| 2026-05-09 12:56 | 39.22252 | -74.33190 | 37993 ft | 385 kts | 224° |
| 2026-05-09 12:57 | 39.17949 | -74.37251 | 37994 ft | 383 kts | 224° |
| 2026-05-09 12:57 | 39.13638 | -74.41312 | 37986 ft | 382 kts | 224° |
| 2026-05-09 12:58 | 39.09348 | -74.45348 | 37994 ft | 382 kts | 224° |
| 2026-05-09 12:58 | 39.05038 | -74.49398 | 37984 ft | 386 kts | 224° |
| 2026-05-09 12:59 | 39.00726 | -74.53442 | 37977 ft | 384 kts | 224° |
| 2026-05-09 12:59 | 38.96435 | -74.57459 | 37982 ft | 385 kts | 224° |
| 2026-05-09 13:00 | 38.92139 | -74.61476 | 37967 ft | 383 kts | 224° |
| 2026-05-09 13:00 | 38.87820 | -74.65508 | 37973 ft | 386 kts | 223° |
| 2026-05-09 13:01 | 38.83470 | -74.69562 | 37988 ft | 385 kts | 224° |
| 2026-05-09 13:01 | 38.79167 | -74.73567 | 37989 ft | 383 kts | 224° |
| 2026-05-09 13:02 | 38.74828 | -74.77600 | 37985 ft | 383 kts | 224° |
| 2026-05-09 13:02 | 38.70515 | -74.81602 | 37988 ft | 383 kts | 224° |
| 2026-05-09 13:03 | 38.66227 | -74.85574 | 37984 ft | 382 kts | 224° |
| 2026-05-09 13:03 | 38.61901 | -74.89577 | 37979 ft | 386 kts | 224° |
| 2026-05-09 13:04 | 38.57558 | -74.93587 | 37980 ft | 385 kts | 224° |
| 2026-05-09 13:04 | 38.53233 | -74.97578 | 37977 ft | 385 kts | 224° |
| 2026-05-09 13:05 | 38.48908 | -75.01559 | 37978 ft | 384 kts | 224° |
| 2026-05-09 13:05 | 38.44597 | -75.05523 | 37986 ft | 380 kts | 224° |
| 2026-05-09 13:06 | 38.40302 | -75.09467 | 37981 ft | 384 kts | 224° |
| 2026-05-09 13:06 | 38.35960 | -75.13446 | 37994 ft | 383 kts | 224° |
| 2026-05-09 13:07 | 38.31678 | -75.17366 | 37993 ft | 380 kts | 224° |
| 2026-05-09 13:07 | 38.27376 | -75.21298 | 37989 ft | 383 kts | 224° |
| 2026-05-09 13:08 | 38.23041 | -75.25254 | 37992 ft | 383 kts | 225° |
| 2026-05-09 13:08 | 38.18749 | -75.29166 | 37999 ft | 380 kts | 224° |
| 2026-05-09 13:09 | 38.14431 | -75.33095 | 37994 ft | 379 kts | 225° |
| 2026-05-09 13:09 | 38.10156 | -75.36979 | 37995 ft | 379 kts | 224° |
| 2026-05-09 13:10 | 38.05873 | -75.40863 | 37992 ft | 380 kts | 225° |
| 2026-05-09 13:10 | 38.01588 | -75.44746 | 37994 ft | 379 kts | 225° |
| 2026-05-09 13:11 | 37.97276 | -75.48645 | 37994 ft | 380 kts | 225° |
| 2026-05-09 13:11 | 37.92998 | -75.52509 | 37986 ft | 378 kts | 225° |
| 2026-05-09 13:12 | 37.88737 | -75.56352 | 37987 ft | 377 kts | 225° |
| 2026-05-09 13:12 | 37.84445 | -75.60219 | 37991 ft | 380 kts | 225° |
| 2026-05-09 13:13 | 37.80154 | -75.64077 | 37987 ft | 376 kts | 225° |
| 2026-05-09 13:13 | 37.75864 | -75.67930 | 38009 ft | 378 kts | 224° |
| 2026-05-09 13:14 | 37.71589 | -75.71763 | 38011 ft | 377 kts | 224° |
| 2026-05-09 13:16 | 37.54513 | -75.87020 | 38008 ft | 376 kts | 225° |
| 2026-05-09 13:16 | 37.50272 | -75.90794 | 37998 ft | 373 kts | 225° |
| 2026-05-09 13:17 | 37.45999 | -75.94595 | 37993 ft | 377 kts | 225° |
| 2026-05-09 13:17 | 37.41754 | -75.98361 | 37992 ft | 374 kts | 225° |
| 2026-05-09 13:18 | 37.37503 | -76.02131 | 37993 ft | 375 kts | 225° |
| 2026-05-09 13:18 | 37.33266 | -76.05882 | 37989 ft | 377 kts | 225° |
| 2026-05-09 13:19 | 37.29015 | -76.09638 | 37978 ft | 374 kts | 225° |
| 2026-05-09 13:19 | 37.24718 | -76.13433 | 37986 ft | 374 kts | 225° |
| 2026-05-09 13:20 | 37.20497 | -76.17153 | 37990 ft | 373 kts | 226° |
| 2026-05-09 13:20 | 37.16255 | -76.20887 | 37997 ft | 372 kts | 226° |
| 2026-05-09 13:21 | 37.11996 | -76.24631 | 37996 ft | 374 kts | 226° |
| 2026-05-09 13:21 | 37.07756 | -76.28353 | 38100 ft | 373 kts | 226° |
| 2026-05-09 13:21 | 37.05651 | -76.30196 | 37995 ft | 371 kts | 226° |
| 2026-05-09 13:22 | 37.03530 | -76.32056 | 38003 ft | 369 kts | 226° |
| 2026-05-09 13:22 | 36.99338 | -76.35727 | 37997 ft | 371 kts | 226° |
| 2026-05-09 13:23 | 36.88776 | -76.44950 | 38002 ft | 372 kts | 226° |
| 2026-05-09 13:24 | 36.84554 | -76.48628 | 38001 ft | 371 kts | 226° |
| 2026-05-09 13:24 | 36.80351 | -76.52284 | 37997 ft | 371 kts | 226° |
| 2026-05-09 13:25 | 36.76120 | -76.55960 | 37998 ft | 369 kts | 226° |
| 2026-05-09 13:26 | 36.69791 | -76.61449 | 37994 ft | 371 kts | 226° |
| 2026-05-09 13:26 | 36.65525 | -76.65144 | 37997 ft | 372 kts | 226° |
| 2026-05-09 13:27 | 36.61308 | -76.68789 | 38013 ft | 372 kts | 226° |
| 2026-05-09 13:27 | 36.57060 | -76.72457 | 38017 ft | 372 kts | 226° |
| 2026-05-09 13:28 | 36.52816 | -76.76116 | 38010 ft | 370 kts | 226° |
| 2026-05-09 13:28 | 36.48581 | -76.79763 | 38008 ft | 371 kts | 226° |
| 2026-05-09 13:29 | 36.44352 | -76.83399 | 38003 ft | 370 kts | 226° |
| 2026-05-09 13:29 | 36.40125 | -76.87031 | 38006 ft | 370 kts | 226° |
| 2026-05-09 13:30 | 36.35868 | -76.90681 | 38003 ft | 371 kts | 227° |
| 2026-05-09 13:30 | 36.31622 | -76.94318 | 38004 ft | 373 kts | 226° |
| 2026-05-09 13:31 | 36.27367 | -76.97958 | 38007 ft | 371 kts | 226° |
| 2026-05-09 13:31 | 36.23133 | -77.01574 | 38006 ft | 371 kts | 227° |
| 2026-05-09 13:32 | 36.18900 | -77.05185 | 38013 ft | 373 kts | 227° |
| 2026-05-09 13:32 | 36.12516 | -77.10621 | 38008 ft | 372 kts | 227° |
| 2026-05-09 13:33 | 36.08248 | -77.14248 | 38006 ft | 371 kts | 227° |
| 2026-05-09 13:33 | 36.03990 | -77.17864 | 38001 ft | 373 kts | 227° |
| 2026-05-09 13:34 | 35.99748 | -77.21461 | 38004 ft | 370 kts | 227° |
| 2026-05-09 13:34 | 35.95493 | -77.25063 | 37996 ft | 370 kts | 227° |
| 2026-05-09 13:35 | 35.91218 | -77.28680 | 37992 ft | 372 kts | 227° |
| 2026-05-09 13:35 | 35.86969 | -77.32266 | 37993 ft | 369 kts | 227° |
| 2026-05-09 13:36 | 35.82704 | -77.35864 | 37987 ft | 372 kts | 227° |
| 2026-05-09 13:36 | 35.78425 | -77.39468 | 37993 ft | 374 kts | 227° |
| 2026-05-09 13:37 | 35.74128 | -77.43082 | 37987 ft | 372 kts | 227° |
| 2026-05-09 13:37 | 35.69875 | -77.46657 | 37990 ft | 372 kts | 227° |
| 2026-05-09 13:38 | 35.65593 | -77.50248 | 37988 ft | 372 kts | 227° |
| 2026-05-09 13:38 | 35.61332 | -77.53817 | 37991 ft | 370 kts | 228° |
| 2026-05-09 13:39 | 35.57057 | -77.57395 | 37986 ft | 372 kts | 227° |
| 2026-05-09 13:39 | 35.52795 | -77.60956 | 37987 ft | 374 kts | 227° |
| 2026-05-09 13:40 | 35.48511 | -77.64530 | 37986 ft | 371 kts | 227° |
| 2026-05-09 13:40 | 35.44207 | -77.68121 | 38015 ft | 375 kts | 227° |
| 2026-05-09 13:41 | 35.39901 | -77.71699 | 38004 ft | 371 kts | 227° |
| 2026-05-09 13:41 | 35.35613 | -77.75269 | 38011 ft | 374 kts | 227° |
| 2026-05-09 13:42 | 35.31293 | -77.78855 | 38007 ft | 377 kts | 227° |
| 2026-05-09 13:42 | 35.26996 | -77.82415 | 37998 ft | 374 kts | 227° |
| 2026-05-09 13:43 | 35.22682 | -77.85987 | 38000 ft | 373 kts | 227° |
| 2026-05-09 13:43 | 35.18421 | -77.89503 | 37890 ft | 355 kts | 228° |
| 2026-05-09 13:44 | 35.16430 | -77.91148 | 37452 ft | 344 kts | 229° |
| 2026-05-09 13:44 | 35.14453 | -77.92784 | 36660 ft | 343 kts | 228° |
| 2026-05-09 13:44 | 35.12478 | -77.94417 | 35648 ft | 346 kts | 228° |
| 2026-05-09 13:44 | 35.10505 | -77.96047 | 34611 ft | 348 kts | 227° |
| 2026-05-09 13:45 | 35.08496 | -77.97701 | 33543 ft | 351 kts | 227° |
| 2026-05-09 13:45 | 35.06477 | -77.99367 | 32487 ft | 355 kts | 226° |
| 2026-05-09 13:45 | 35.04413 | -78.01068 | 31281 ft | 363 kts | 226° |
| 2026-05-09 13:45 | 35.02341 | -78.02773 | 30067 ft | 370 kts | 225° |
| 2026-05-09 13:46 | 35.00187 | -78.04543 | 28892 ft | 373 kts | 224° |
| 2026-05-09 13:46 | 34.98067 | -78.06280 | 28114 ft | 367 kts | 224° |
| 2026-05-09 13:46 | 34.93842 | -78.09750 | 28010 ft | 371 kts | 224° |
| 2026-05-09 13:47 | 34.89531 | -78.13281 | 27994 ft | 375 kts | 224° |
| 2026-05-09 13:47 | 34.87360 | -78.15060 | 27997 ft | 374 kts | 223° |
| 2026-05-09 13:47 | 34.85207 | -78.16821 | 27993 ft | 373 kts | 223° |
| 2026-05-09 13:48 | 34.83021 | -78.18610 | 27994 ft | 376 kts | 223° |
| 2026-05-09 13:48 | 34.80851 | -78.20383 | 27994 ft | 376 kts | 223° |
| 2026-05-09 13:48 | 34.78677 | -78.22160 | 27991 ft | 375 kts | 223° |
| 2026-05-09 13:48 | 34.76530 | -78.23912 | 27986 ft | 373 kts | 223° |
| 2026-05-09 13:49 | 34.74364 | -78.25679 | 27986 ft | 376 kts | 223° |
| 2026-05-09 13:49 | 34.72208 | -78.27437 | 27985 ft | 372 kts | 223° |
| 2026-05-09 13:49 | 34.70021 | -78.29220 | 27985 ft | 376 kts | 223° |
| 2026-05-09 13:49 | 34.67852 | -78.30985 | 27978 ft | 376 kts | 223° |
| 2026-05-09 13:50 | 34.65681 | -78.32752 | 27981 ft | 374 kts | 223° |
| 2026-05-09 13:50 | 34.63509 | -78.34518 | 27989 ft | 375 kts | 223° |
| 2026-05-09 13:50 | 34.61371 | -78.36254 | 27977 ft | 374 kts | 223° |
| 2026-05-09 13:50 | 34.59209 | -78.38011 | 27982 ft | 374 kts | 223° |
| 2026-05-09 13:51 | 34.57013 | -78.39795 | 27984 ft | 377 kts | 223° |
| 2026-05-09 13:51 | 34.54870 | -78.41531 | 27992 ft | 374 kts | 223° |
| 2026-05-09 13:51 | 34.52699 | -78.43292 | 27984 ft | 376 kts | 222° |
| 2026-05-09 13:51 | 34.50536 | -78.45045 | 27979 ft | 376 kts | 222° |
| 2026-05-09 13:52 | 34.48372 | -78.46796 | 27988 ft | 374 kts | 223° |
| 2026-05-09 13:52 | 34.46191 | -78.48562 | 27985 ft | 374 kts | 223° |
| 2026-05-09 13:52 | 34.44020 | -78.50317 | 27981 ft | 376 kts | 223° |
| 2026-05-09 13:52 | 34.41838 | -78.52079 | 27982 ft | 377 kts | 223° |
| 2026-05-09 13:53 | 34.39684 | -78.53818 | 27981 ft | 378 kts | 223° |
| 2026-05-09 13:53 | 34.37485 | -78.55592 | 27981 ft | 378 kts | 223° |
| 2026-05-09 13:53 | 34.35327 | -78.57334 | 27983 ft | 378 kts | 223° |
| 2026-05-09 13:53 | 34.33137 | -78.59115 | 27972 ft | 371 kts | 224° |
| 2026-05-09 13:54 | 34.31235 | -78.61161 | 27981 ft | 366 kts | 233° |
| 2026-05-09 13:54 | 34.29460 | -78.63355 | 27988 ft | 366 kts | 233° |
| 2026-05-09 13:54 | 34.27669 | -78.65529 | 27989 ft | 365 kts | 232° |
| 2026-05-09 13:54 | 34.25870 | -78.67697 | 28009 ft | 367 kts | 232° |
| 2026-05-09 13:55 | 34.22256 | -78.72033 | 27995 ft | 358 kts | 232° |
| 2026-05-09 13:55 | 34.20507 | -78.74129 | 28000 ft | 350 kts | 231° |
| 2026-05-09 13:55 | 34.18768 | -78.76213 | 28001 ft | 352 kts | 232° |
| 2026-05-09 13:56 | 34.15291 | -78.80376 | 27725 ft | 354 kts | 232° |
| 2026-05-09 13:56 | 34.13558 | -78.82446 | 27348 ft | 351 kts | 232° |
| 2026-05-09 13:56 | 34.11824 | -78.84516 | 26957 ft | 351 kts | 232° |
| 2026-05-09 13:57 | 34.10090 | -78.86589 | 26570 ft | 349 kts | 231° |
| 2026-05-09 13:57 | 34.08385 | -78.88621 | 26187 ft | 348 kts | 232° |
| 2026-05-09 13:57 | 34.06670 | -78.90668 | 25806 ft | 349 kts | 231° |
| 2026-05-09 13:57 | 34.04945 | -78.92723 | 25417 ft | 345 kts | 232° |
| 2026-05-09 13:58 | 34.03234 | -78.94761 | 25033 ft | 345 kts | 232° |
| 2026-05-09 13:58 | 34.01535 | -78.96783 | 24655 ft | 342 kts | 232° |
| 2026-05-09 13:58 | 33.99847 | -78.98791 | 24279 ft | 342 kts | 232° |
| 2026-05-09 13:58 | 33.98144 | -79.00816 | 23904 ft | 345 kts | 232° |
| 2026-05-09 13:59 | 33.96460 | -79.02817 | 23531 ft | 342 kts | 232° |
| 2026-05-09 13:59 | 33.94774 | -79.04817 | 23163 ft | 340 kts | 232° |
| 2026-05-09 13:59 | 33.93106 | -79.06799 | 22793 ft | 339 kts | 233° |
| 2026-05-09 13:59 | 33.91437 | -79.08778 | 22420 ft | 339 kts | 232° |
| 2026-05-09 14:00 | 33.89736 | -79.10795 | 22038 ft | 339 kts | 232° |
| 2026-05-09 14:00 | 33.88634 | -79.12101 | 21790 ft | 338 kts | 232° |
| 2026-05-09 14:00 | 33.86389 | -79.14758 | 21294 ft | 337 kts | 231° |
| 2026-05-09 14:00 | 33.84736 | -79.16715 | 20926 ft | 334 kts | 232° |
| 2026-05-09 14:01 | 33.83074 | -79.18680 | 20548 ft | 335 kts | 232° |
| 2026-05-09 14:01 | 33.81430 | -79.20624 | 20183 ft | 332 kts | 231° |
| 2026-05-09 14:01 | 33.79796 | -79.22554 | 19805 ft | 332 kts | 232° |
| 2026-05-09 14:01 | 33.78008 | -79.24337 | 19451 ft | 340 kts | 221° |
| 2026-05-09 14:02 | 33.75993 | -79.25871 | 19071 ft | 340 kts | 220° |
| 2026-05-09 14:02 | 33.74000 | -79.27379 | 18703 ft | 338 kts | 220° |
| 2026-05-09 14:02 | 33.72024 | -79.28873 | 18303 ft | 339 kts | 220° |
| 2026-05-09 14:02 | 33.70026 | -79.30382 | 17940 ft | 337 kts | 219° |
| 2026-05-09 14:03 | 33.68059 | -79.31867 | 17577 ft | 335 kts | 219° |
| 2026-05-09 14:03 | 33.66111 | -79.33337 | 17205 ft | 332 kts | 219° |
| 2026-05-09 14:03 | 33.64152 | -79.34815 | 16834 ft | 332 kts | 219° |
| 2026-05-09 14:03 | 33.62226 | -79.36266 | 16472 ft | 328 kts | 219° |
| 2026-05-09 14:04 | 33.60292 | -79.37723 | 16106 ft | 326 kts | 218° |
| 2026-05-09 14:04 | 33.58366 | -79.39173 | 15739 ft | 323 kts | 218° |
| 2026-05-09 14:04 | 33.56469 | -79.40601 | 15378 ft | 324 kts | 218° |
| 2026-05-09 14:04 | 33.54568 | -79.42030 | 15019 ft | 323 kts | 218° |
| 2026-05-09 14:05 | 33.52652 | -79.43471 | 14664 ft | 321 kts | 218° |
| 2026-05-09 14:05 | 33.50768 | -79.44887 | 14307 ft | 318 kts | 218° |
| 2026-05-09 14:05 | 33.48886 | -79.46301 | 13961 ft | 318 kts | 218° |
| 2026-05-09 14:05 | 33.47036 | -79.47691 | 13616 ft | 315 kts | 218° |
| 2026-05-09 14:06 | 33.45186 | -79.49082 | 13265 ft | 315 kts | 217° |
| 2026-05-09 14:06 | 33.43340 | -79.50468 | 12918 ft | 312 kts | 217° |
| 2026-05-09 14:06 | 33.41497 | -79.51850 | 12568 ft | 312 kts | 217° |
| 2026-05-09 14:06 | 33.39637 | -79.53246 | 12225 ft | 312 kts | 217° |
| 2026-05-09 14:07 | 33.37805 | -79.54620 | 11879 ft | 309 kts | 217° |
| 2026-05-09 14:07 | 33.36012 | -79.55963 | 11534 ft | 303 kts | 218° |
| 2026-05-09 14:07 | 33.34243 | -79.57297 | 11237 ft | 298 kts | 218° |
| 2026-05-09 14:07 | 33.32500 | -79.58620 | 10924 ft | 293 kts | 218° |
| 2026-05-09 14:08 | 33.30812 | -79.59900 | 10608 ft | 285 kts | 218° |
| 2026-05-09 14:08 | 33.29164 | -79.61150 | 10289 ft | 278 kts | 218° |
| 2026-05-09 14:08 | 33.27544 | -79.62377 | 9980 ft | 272 kts | 218° |
| 2026-05-09 14:08 | 33.25973 | -79.63567 | 9690 ft | 266 kts | 218° |
| 2026-05-09 14:09 | 33.24400 | -79.64761 | 9396 ft | 265 kts | 218° |
| 2026-05-09 14:09 | 33.22856 | -79.65931 | 9118 ft | 266 kts | 217° |
| 2026-05-09 14:09 | 33.21290 | -79.67117 | 8826 ft | 265 kts | 217° |
| 2026-05-09 14:09 | 33.19698 | -79.68253 | 8534 ft | 264 kts | 215° |
| 2026-05-09 14:10 | 33.16548 | -79.70470 | 7958 ft | 261 kts | 215° |
| 2026-05-09 14:10 | 33.14990 | -79.71568 | 7663 ft | 260 kts | 215° |
| 2026-05-09 14:10 | 33.13421 | -79.72671 | 7390 ft | 259 kts | 215° |
| 2026-05-09 14:11 | 33.11864 | -79.73767 | 7097 ft | 258 kts | 215° |
| 2026-05-09 14:11 | 33.10311 | -79.74858 | 6807 ft | 258 kts | 215° |
| 2026-05-09 14:11 | 33.08775 | -79.75937 | 6522 ft | 254 kts | 215° |
| 2026-05-09 14:11 | 33.07291 | -79.76978 | 6247 ft | 246 kts | 215° |
| 2026-05-09 14:12 | 33.05843 | -79.77994 | 5967 ft | 237 kts | 215° |
| 2026-05-09 14:12 | 33.04429 | -79.78986 | 5716 ft | 230 kts | 215° |
| 2026-05-09 14:12 | 33.03079 | -79.79933 | 5464 ft | 223 kts | 214° |
| 2026-05-09 14:12 | 33.01760 | -79.80859 | 5217 ft | 217 kts | 215° |
| 2026-05-09 14:13 | 33.00484 | -79.81754 | 4981 ft | 212 kts | 214° |
| 2026-05-09 14:14 | 32.92604 | -79.87270 | 3528 ft | 163 kts | 214° |
| 2026-05-09 14:15 | 32.91643 | -79.87942 | 3337 ft | 156 kts | 213° |
| 2026-05-09 14:15 | 32.90713 | -79.88593 | 3163 ft | 155 kts | 213° |
| 2026-05-09 14:15 | 32.89785 | -79.89241 | 3072 ft | 146 kts | 213° |
| 2026-05-09 14:15 | 32.88922 | -79.89853 | 2993 ft | 143 kts | 213° |
| 2026-05-09 14:16 | 32.88060 | -79.90465 | 2999 ft | 143 kts | 213° |
| 2026-05-09 14:16 | 32.87208 | -79.91071 | 2992 ft | 138 kts | 213° |
| 2026-05-09 14:16 | 32.86396 | -79.91647 | 2727 ft | 137 kts | 213° |
| 2026-05-09 14:16 | 32.85598 | -79.92252 | 2368 ft | 140 kts | 224° |
| 2026-05-09 14:17 | 32.85149 | -79.93276 | 1995 ft | 144 kts | 250° |
| 2026-05-09 14:17 | 32.84853 | -79.94424 | 1657 ft | 146 kts | 251° |
| 2026-05-09 14:17 | 32.84568 | -79.95555 | 1306 ft | 141 kts | 251° |
| 2026-05-09 14:17 | 32.84296 | -79.96653 | 1015 ft | 138 kts | 252° |
| 2026-05-09 14:18 | 32.84051 | -79.97671 | 952 ft | 120 kts | 257° |
| 2026-05-09 14:18 | 32.84208 | -79.98620 | 1002 ft | 122 kts | 301° |
| 2026-05-09 14:18 | 32.84748 | -79.99420 | 1010 ft | 126 kts | 308° |
| 2026-05-09 14:18 | 32.85348 | -80.00166 | 991 ft | 127 kts | 321° |
| 2026-05-09 14:19 | 32.86082 | -80.00762 | 1000 ft | 127 kts | 323° |
| 2026-05-09 14:19 | 32.86830 | -80.01350 | 780 ft | 129 kts | 324° |
| 2026-05-09 14:19 | 32.87557 | -80.01959 | 468 ft | 127 kts | 324° |
| 2026-05-09 14:19 | 32.88287 | -80.02527 | 265 ft | 124 kts | 327° |
| 2026-05-09 14:20 | 32.89003 | -80.03072 | 119 ft | 123 kts | 327° |
| 2026-05-09 14:20 | 32.89719 | -80.03610 | 55 ft | 112 kts | 327° |
| 2026-05-09 14:20 | 32.90255 | -80.04017 | 57 ft | 68 kts | 328° |
| 2026-05-09 14:21 | 32.90640 | -80.04302 | 58 ft | 8 kts | 327° |
| 2026-05-09 14:21 | 32.90719 | -80.04363 | 58 ft | 18 kts | 327° |
| 2026-05-09 14:21 | 32.90835 | -80.04349 | 58 ft | 21 kts | 92° |
| 2026-05-09 14:21 | 32.90752 | -80.04204 | 58 ft | 21 kts | 137° |
| 2026-05-09 14:22 | 32.90642 | -80.04079 | 57 ft | 21 kts | 137° |
| 2026-05-09 14:22 | 32.90527 | -80.03961 | 57 ft | 21 kts | 139° |
| 2026-05-09 14:22 | 32.90416 | -80.03841 | 57 ft | 21 kts | 139° |
| 2026-05-09 14:22 | 32.90301 | -80.03719 | 57 ft | 22 kts | 138° |
| 2026-05-09 14:23 | 32.90210 | -80.03580 | 57 ft | 21 kts | 112° |
| 2026-05-09 14:23 | 32.90119 | -80.03464 | 57 ft | 20 kts | 200° |
| 2026-05-09 14:23 | 32.89988 | -80.03534 | 56 ft | 20 kts | 204° |
| 2026-05-09 14:23 | 32.89866 | -80.03570 | 56 ft | 16 kts | 180° |
| 2026-05-09 14:24 | 32.89741 | -80.03574 | 55 ft | 19 kts | 182° |
| 2026-05-09 14:24 | 32.89586 | -80.03580 | 54 ft | 24 kts | 182° |
| 2026-05-09 14:24 | 32.89401 | -80.03587 | 52 ft | 27 kts | 180° |
| 2026-05-09 14:24 | 32.89205 | -80.03592 | 49 ft | 28 kts | 182° |
| 2026-05-09 14:25 | 32.89001 | -80.03599 | 46 ft | 29 kts | 185° |
| 2026-05-09 14:25 | 32.88791 | -80.03633 | 43 ft | 30 kts | 189° |
| 2026-05-09 14:25 | 32.88612 | -80.03664 | 41 ft | 14 kts | 179° |
| 2026-05-09 14:25 | 32.88569 | -80.03652 | 40 ft | 5 kts | 166° |
| 2026-05-09 14:26 | 32.88542 | -80.03642 | 40 ft | 3 kts | 162° |
| 2026-05-09 14:26 | 32.88540 | -80.03642 | 40 ft | 0 kts | 162° |